Bedford Park, Illinois
Current Conditions -  °F | °C
As of 2:53 AM on Saturday 25 Oct 2014 (Local Time) from KMDW Reporting Station
Broken Clouds Broken Clouds  
Wind Chill: 57°   Ceiling: 3300
Heat Index: 57°   Visibility: 9mi
Dew Point: 52°   Wind: 6mph
Humidity: 83%   Direction: 240°WSW
Pressure: 29.89"   Gusts: NA
Location:  41.76°N, 87.8°W
Report Text: KMDW 250753Z 24005KT 9SM SCT018 BKN033 14/11 A2989 RMK AO2 SLP120 T01390111
Loading
Personal Weather Stations






























Interactive Weather Map
Tropical Storm Tracking
New forecast layout! Learn more

10-Day Weather Forecast

Advertisements
Track Severe Weather on mobile